Islander Express — WCJ6211 — position and weather

sailwx.info

Track history (hours):
 
Tides and Currents Weather Stations Pressure Air Temp Water Temp Dewpoint Dewpoint Depression Visibility Wind Speed Wind Dir Waves Ship Positions

Islander Express

Owner: RGWT INC, Long Beach, CA. More information available from US FCC via Universal Licensing System and Coast Guard Vessel Documentation Center.

Last reported at 2017-Nov-19 23:49 UTC. Time now 2017-Nov-20 04:08 UTC.
Position N 33°21' W 118°16'.

Length 37 m; draft 1.6 m.

Type: High speed craft. MMSI: 366943970.

Date/timePositionNaut miles runAvg speedWind from/ knotsBaromVisibWave heightAir tempDewpointWater temp
2017-Nov-19 23:49N 33°21' W 118°16'1426.3
2017-Nov-19 23:17N 33°24' W 117°60'726.0
2017-Nov-19 23:00N 33°25' W 117°51'816.9
2017-Nov-19 22:30N 33°28' W 117°42'0 0.0
2017-Nov-19 22:00N 33°28' W 117°42'0 0.0
2017-Nov-19 21:30N 33°28' W 117°42'3 6.3
2017-Nov-19 21:01N 33°26' W 117°45'1426.2
2017-Nov-19 20:28N 33°24' W 118°02'1512.3
2017-Nov-19 19:15N 33°21' W 118°19'312.1
2017-Nov-19 18:59N 33°21' W 118°16'2325.9
2017-Nov-19 18:07N 33°25' W 117°49'626.0
2017-Nov-19 17:54N 33°27' W 117°42'1 2.7
2017-Nov-19 17:30N 33°28' W 117°42'0 0.1
2017-Nov-19 16:26N 33°28' W 117°41'0 0.0
2017-Nov-19 03:03N 33°28' W 117°42'0 0.0
2017-Nov-19 03:00N 33°28' W 117°42'0 0.0
2017-Nov-19 02:29N 33°28' W 117°42'0 0.0
2017-Nov-19 02:00N 33°28' W 117°42'612.9
2017-Nov-19 01:31N 33°26' W 117°49'2426.8
2017-Nov-19 00:37N 33°21' W 118°17'2 2.2
2017-Nov-18 23:42N 33°21' W 118°20'0 0.0
2017-Nov-18 23:29N 33°21' W 118°20'0 0.0
2017-Nov-18 22:00N 33°21' W 118°20'25 6.4
2017-Nov-18 18:09N 33°26' W 117°50'625.7
2017-Nov-18 17:55N 33°27' W 117°43'2 4.2
2017-Nov-18 17:30N 33°28' W 117°42'0 0.0
2017-Nov-18 02:45N 33°28' W 117°42'0 0.0
2017-Nov-18 02:22N 33°28' W 117°42'0 0.3
2017-Nov-18 01:53N 33°27' W 117°42'9 3.0
2017-Nov-17 22:59N 33°25' W 117°52'918.6
2017-Nov-17 22:30N 33°28' W 117°42'0 0.0
2017-Nov-17 22:00N 33°28' W 117°42'0 0.0
2017-Nov-17 21:30N 33°28' W 117°42'2 3.8
2017-Nov-17 21:01N 33°26' W 117°43'4 1.4
2017-Nov-17 18:04N 33°26' W 117°48'425.2
2017-Nov-17 17:55N 33°27' W 117°44'2 5.5
2017-Nov-17 17:30N 33°28' W 117°42'0 0.0
2017-Nov-17 16:59N 33°28' W 117°42'0 0.0
2017-Nov-17 16:22N 33°28' W 117°42'0 0.0
2017-Nov-17 15:59N 33°28' W 117°42'0 0.0
2017-Nov-17 15:30N 33°28' W 117°42'0 0.0
2017-Nov-17 15:00N 33°28' W 117°42'0 0.0
2017-Nov-17 02:52N 33°28' W 117°42'0 0.0
2017-Nov-17 02:30N 33°28' W 117°42'0 0.0
2017-Nov-17 02:00N 33°28' W 117°42'713.9
2017-Nov-17 01:30N 33°26' W 117°49'26 9.6
2017-Nov-16 22:50N 33°21' W 118°20'0 0.0
2017-Nov-16 22:26N 33°21' W 118°20'0 0.0
2017-Nov-16 20:51N 33°21' W 118°20'0 0.0
2017-Nov-16 20:30N 33°21' W 118°20'0 0.0
2017-Nov-16 20:00N 33°21' W 118°20'1 1.2
2017-Nov-16 19:30N 33°21' W 118°19'4 7.8
2017-Nov-16 19:01N 33°22' W 118°15'1524.9
2017-Nov-16 18:25N 33°24' W 117°57'1024.9
2017-Nov-16 18:01N 33°26' W 117°46'4 7.0
2017-Nov-16 17:30N 33°28' W 117°42'0 0.1
2017-Nov-16 16:51N 33°28' W 117°41'0 0.2
2017-Nov-16 16:30N 33°28' W 117°42'0 0.0
2017-Nov-16 02:07N 33°28' W 117°42'1 2.9
2017-Nov-16 01:45N 33°27' W 117°42'625.4
2017-Nov-16 01:31N 33°25' W 117°49'2616.0
2017-Nov-15 23:55N 33°21' W 118°19'0 0.4
2017-Nov-15 22:54N 33°21' W 118°20'0 0.0
2017-Nov-15 22:30N 33°21' W 118°20'0 0.0
2017-Nov-15 21:26N 33°21' W 118°20'0 0.0
2017-Nov-15 21:00N 33°21' W 118°20'16 6.5
2017-Nov-15 18:28N 33°24' W 118°00'16 9.1
2017-Nov-15 16:43N 33°28' W 117°42'0 0.0
2017-Nov-15 16:30N 33°28' W 117°42'0 0.0
2017-Nov-15 16:00N 33°28' W 117°42'0 0.0
2017-Nov-15 02:33N 33°28' W 117°42'0 0.0
2017-Nov-15 02:29N 33°28' W 117°42'0 0.0
2017-Nov-15 02:00N 33°28' W 117°42'510.3
2017-Nov-15 01:30N 33°26' W 117°47'2027.3
2017-Nov-15 00:46N 33°22' W 118°11'5 1.0
2017-Nov-14 19:14N 33°21' W 118°17'2221.1
2017-Nov-14 18:12N 33°25' W 117°52'526.5
2017-Nov-14 18:00N 33°26' W 117°46'4 3.0
2017-Nov-14 16:46N 33°28' W 117°42'0 0.0
2017-Nov-14 16:22N 33°28' W 117°42'0 0.0
2017-Nov-14 16:00N 33°28' W 117°42'0 0.0
2017-Nov-14 15:29N 33°28' W 117°42'0 0.0
2017-Nov-14 14:58N 33°28' W 117°42'0 0.0
2017-Nov-14 03:20N 33°28' W 117°42'0 0.0
2017-Nov-14 03:00N 33°28' W 117°42'0 0.0
2017-Nov-14 02:30N 33°28' W 117°42'0 0.0
2017-Nov-14 02:00N 33°28' W 117°42'713.6
2017-Nov-14 01:30N 33°26' W 117°49'1326.5
2017-Nov-14 01:00N 33°23' W 118°05'1224.5
2017-Nov-14 00:30N 33°21' W 118°19'1 0.6
2017-Nov-13 23:30N 33°21' W 118°20'0 0.0
2017-Nov-13 22:51N 33°21' W 118°20'0 0.1
2017-Nov-13 22:23N 33°21' W 118°20'0 0.1
2017-Nov-13 22:00N 33°21' W 118°20'32 1.6
2017-Nov-13 01:53N 33°28' W 117°42'614.8
2017-Nov-13 01:31N 33°25' W 117°48'2527.1
2017-Nov-13 00:34N 33°21' W 118°18'1 0.6
2017-Nov-12 23:45N 33°21' W 118°18'727.3
2017-Nov-12 23:30N 33°22' W 118°10'1326.8
2017-Nov-12 23:00N 33°24' W 117°55'1222.7
2017-Nov-12 22:30N 33°28' W 117°42'0 0.0
2017-Nov-12 22:00N 33°28' W 117°42'0 0.0
2017-Nov-12 21:29N 33°28' W 117°42'612.5
2017-Nov-12 21:01N 33°26' W 117°48'2424.1
2017-Nov-12 20:01N 33°22' W 118°17'0 8.8
2017-Nov-12 19:59N 33°21' W 118°17'2 1.9
2017-Nov-12 19:10N 33°21' W 118°18'2122.5
2017-Nov-12 18:14N 33°25' W 117°54'11 0.6
2017-Nov-12 02:00N 33°28' W 117°42'612.6
2017-Nov-12 01:31N 33°25' W 117°48'25 4.1
2017-Nov-11 19:17N 33°21' W 118°18'31 1.8
2017-Nov-11 02:10N 33°28' W 117°42'3113.9
2017-Nov-10 23:54N 33°21' W 118°18'3111.1
2017-Nov-10 21:04N 33°27' W 117°42'1 9.5
2017-Nov-10 21:00N 33°27' W 117°42'1 0.2
2017-Nov-10 17:10N 33°28' W 117°42'0 0.0
2017-Nov-10 01:55N 33°28' W 117°42'613.8
2017-Nov-10 01:30N 33°26' W 117°48'  
Track history (hours):
 
Tides and Currents Weather Stations Pressure Air Temp Water Temp Dewpoint Dewpoint Depression Visibility Wind Speed Wind Dir Waves Ship Positions

Islander Express

Owner: RGWT INC, Long Beach, CA. More information available from US FCC via Universal Licensing System and Coast Guard Vessel Documentation Center.

Last reported at 2017-Nov-19 23:49 UTC. Time now 2017-Nov-20 04:08 UTC.
Position N 33°21' W 118°16'.

Length 37 m; draft 1.6 m.

Type: High speed craft. MMSI: 366943970.

Date/timePositionNaut miles runAvg speedWind from/ knotsBaromVisibWave heightAir tempDewpointWater temp
2017-Nov-19 23:49N 33°21' W 118°16'1426.3
2017-Nov-19 23:17N 33°24' W 117°60'726.0
2017-Nov-19 23:00N 33°25' W 117°51'816.9
2017-Nov-19 22:30N 33°28' W 117°42'0 0.0
2017-Nov-19 22:00N 33°28' W 117°42'0 0.0
2017-Nov-19 21:30N 33°28' W 117°42'3 6.3
2017-Nov-19 21:01N 33°26' W 117°45'1426.2
2017-Nov-19 20:28N 33°24' W 118°02'1512.3
2017-Nov-19 19:15N 33°21' W 118°19'312.1
2017-Nov-19 18:59N 33°21' W 118°16'2325.9
2017-Nov-19 18:07N 33°25' W 117°49'626.0
2017-Nov-19 17:54N 33°27' W 117°42'1 2.7
2017-Nov-19 17:30N 33°28' W 117°42'0 0.1
2017-Nov-19 16:26N 33°28' W 117°41'0 0.0
2017-Nov-19 03:03N 33°28' W 117°42'0 0.0
2017-Nov-19 03:00N 33°28' W 117°42'0 0.0
2017-Nov-19 02:29N 33°28' W 117°42'0 0.0
2017-Nov-19 02:00N 33°28' W 117°42'612.9
2017-Nov-19 01:31N 33°26' W 117°49'2426.8
2017-Nov-19 00:37N 33°21' W 118°17'2 2.2
2017-Nov-18 23:42N 33°21' W 118°20'0 0.0
2017-Nov-18 23:29N 33°21' W 118°20'0 0.0
2017-Nov-18 22:00N 33°21' W 118°20'25 6.4
2017-Nov-18 18:09N 33°26' W 117°50'625.7
2017-Nov-18 17:55N 33°27' W 117°43'2 4.2
2017-Nov-18 17:30N 33°28' W 117°42'0 0.0
2017-Nov-18 02:45N 33°28' W 117°42'0 0.0
2017-Nov-18 02:22N 33°28' W 117°42'0 0.3
2017-Nov-18 01:53N 33°27' W 117°42'9 3.0
2017-Nov-17 22:59N 33°25' W 117°52'918.6
2017-Nov-17 22:30N 33°28' W 117°42'0 0.0
2017-Nov-17 22:00N 33°28' W 117°42'0 0.0
2017-Nov-17 21:30N 33°28' W 117°42'2 3.8
2017-Nov-17 21:01N 33°26' W 117°43'4 1.4
2017-Nov-17 18:04N 33°26' W 117°48'425.2
2017-Nov-17 17:55N 33°27' W 117°44'2 5.5
2017-Nov-17 17:30N 33°28' W 117°42'0 0.0
2017-Nov-17 16:59N 33°28' W 117°42'0 0.0
2017-Nov-17 16:22N 33°28' W 117°42'0 0.0
2017-Nov-17 15:59N 33°28' W 117°42'0 0.0
2017-Nov-17 15:30N 33°28' W 117°42'0 0.0
2017-Nov-17 15:00N 33°28' W 117°42'0 0.0
2017-Nov-17 02:52N 33°28' W 117°42'0 0.0
2017-Nov-17 02:30N 33°28' W 117°42'0 0.0
2017-Nov-17 02:00N 33°28' W 117°42'713.9
2017-Nov-17 01:30N 33°26' W 117°49'26 9.6
2017-Nov-16 22:50N 33°21' W 118°20'0 0.0
2017-Nov-16 22:26N 33°21' W 118°20'0 0.0
2017-Nov-16 20:51N 33°21' W 118°20'0 0.0
2017-Nov-16 20:30N 33°21' W 118°20'0 0.0
2017-Nov-16 20:00N 33°21' W 118°20'1 1.2
2017-Nov-16 19:30N 33°21' W 118°19'4 7.8
2017-Nov-16 19:01N 33°22' W 118°15'1524.9
2017-Nov-16 18:25N 33°24' W 117°57'1024.9
2017-Nov-16 18:01N 33°26' W 117°46'4 7.0
2017-Nov-16 17:30N 33°28' W 117°42'0 0.1
2017-Nov-16 16:51N 33°28' W 117°41'0 0.2
2017-Nov-16 16:30N 33°28' W 117°42'0 0.0
2017-Nov-16 02:07N 33°28' W 117°42'1 2.9
2017-Nov-16 01:45N 33°27' W 117°42'625.4
2017-Nov-16 01:31N 33°25' W 117°49'2616.0
2017-Nov-15 23:55N 33°21' W 118°19'0 0.4
2017-Nov-15 22:54N 33°21' W 118°20'0 0.0
2017-Nov-15 22:30N 33°21' W 118°20'0 0.0
2017-Nov-15 21:26N 33°21' W 118°20'0 0.0
2017-Nov-15 21:00N 33°21' W 118°20'16 6.5
2017-Nov-15 18:28N 33°24' W 118°00'16 9.1
2017-Nov-15 16:43N 33°28' W 117°42'0 0.0
2017-Nov-15 16:30N 33°28' W 117°42'0 0.0
2017-Nov-15 16:00N 33°28' W 117°42'0 0.0
2017-Nov-15 02:33N 33°28' W 117°42'0 0.0
2017-Nov-15 02:29N 33°28' W 117°42'0 0.0
2017-Nov-15 02:00N 33°28' W 117°42'510.3
2017-Nov-15 01:30N 33°26' W 117°47'2027.3
2017-Nov-15 00:46N 33°22' W 118°11'5 1.0
2017-Nov-14 19:14N 33°21' W 118°17'2221.1
2017-Nov-14 18:12N 33°25' W 117°52'526.5
2017-Nov-14 18:00N 33°26' W 117°46'4 3.0
2017-Nov-14 16:46N 33°28' W 117°42'0 0.0
2017-Nov-14 16:22N 33°28' W 117°42'0 0.0
2017-Nov-14 16:00N 33°28' W 117°42'0 0.0
2017-Nov-14 15:29N 33°28' W 117°42'0 0.0
2017-Nov-14 14:58N 33°28' W 117°42'0 0.0
2017-Nov-14 03:20N 33°28' W 117°42'0 0.0
2017-Nov-14 03:00N 33°28' W 117°42'0 0.0
2017-Nov-14 02:30N 33°28' W 117°42'0 0.0
2017-Nov-14 02:00N 33°28' W 117°42'713.6
2017-Nov-14 01:30N 33°26' W 117°49'1326.5
2017-Nov-14 01:00N 33°23' W 118°05'1224.5
2017-Nov-14 00:30N 33°21' W 118°19'1 0.6
2017-Nov-13 23:30N 33°21' W 118°20'0 0.0
2017-Nov-13 22:51N 33°21' W 118°20'0 0.1
2017-Nov-13 22:23N 33°21' W 118°20'0 0.1
2017-Nov-13 22:00N 33°21' W 118°20'32 1.6
2017-Nov-13 01:53N 33°28' W 117°42'614.8
2017-Nov-13 01:31N 33°25' W 117°48'2527.1
2017-Nov-13 00:34N 33°21' W 118°18'1 0.6
2017-Nov-12 23:45N 33°21' W 118°18'727.3
2017-Nov-12 23:30N 33°22' W 118°10'1326.8
2017-Nov-12 23:00N 33°24' W 117°55'1222.7
2017-Nov-12 22:30N 33°28' W 117°42'0 0.0
2017-Nov-12 22:00N 33°28' W 117°42'0 0.0
2017-Nov-12 21:29N 33°28' W 117°42'612.5
2017-Nov-12 21:01N 33°26' W 117°48'2424.1
2017-Nov-12 20:01N 33°22' W 118°17'0 8.8
2017-Nov-12 19:59N 33°21' W 118°17'2 1.9
2017-Nov-12 19:10N 33°21' W 118°18'2122.5
2017-Nov-12 18:14N 33°25' W 117°54'11 0.6
2017-Nov-12 02:00N 33°28' W 117°42'612.6
2017-Nov-12 01:31N 33°25' W 117°48'25 4.1
2017-Nov-11 19:17N 33°21' W 118°18'31 1.8
2017-Nov-11 02:10N 33°28' W 117°42'3113.9
2017-Nov-10 23:54N 33°21' W 118°18'3111.1
2017-Nov-10 21:04N 33°27' W 117°42'1 9.5
2017-Nov-10 21:00N 33°27' W 117°42'1 0.2
2017-Nov-10 17:10N 33°28' W 117°42'0 0.0
2017-Nov-10 01:55N 33°28' W 117°42'613.8
2017-Nov-10 01:30N 33°26' W 117°48'  

Dump ship's entire track history